Terminal Aerodrome Forecast
Issued by NWS Grand Junction, CO

Home | Current Version | Previous Version | Text Only | Print | Product List | Glossary On
Versions: 1 2 3 4 5 6 7 8 9 10 11 12 13
000
FTUS45 KGJT 291121
TAFGJT
TAF
KGJT 291121Z 2912/3012 01005KT P6SM SCT070
      TEMPO 2912/2914 BKN070
     FM291700 04009KT P6SM SKC
     FM292000 01009KT P6SM SKC
     FM300100 02005KT P6SM FEW200
     FM300600 08005KT P6SM FEW200=

USA.gov is the U.S. government's official web portal to all federal, state and local government web resources and services.